createdAt,value
2019-05-06T00:01:59.378Z,4.20
2019-05-06T00:04:30.477Z,3.90
2019-05-06T00:07:01.478Z,3.03
2019-05-06T00:09:34.728Z,3.50
2019-05-06T00:12:05.126Z,3.10
2019-05-06T00:14:36.033Z,4.20
2019-05-06T00:17:07.291Z,3.43
2019-05-06T00:19:38.198Z,3.93
2019-05-06T00:22:09.135Z,2.73
2019-05-06T00:24:46.439Z,3.20
2019-05-06T00:27:24.627Z,5.07
2019-05-06T00:29:55.858Z,2.93
2019-05-06T00:32:26.904Z,3.33
2019-05-06T00:34:57.846Z,3.40
2019-05-06T00:37:28.702Z,2.87
2019-05-06T00:40:04.952Z,3.23
2019-05-06T00:42:57.922Z,3.00
2019-05-06T00:45:28.727Z,3.57
2019-05-06T00:47:59.874Z,3.10
2019-05-06T00:50:31.410Z,3.50
2019-05-06T00:53:04.627Z,4.93
2019-05-06T00:55:36.562Z,3.07
2019-05-06T00:58:07.630Z,3.40
2019-05-06T01:00:59.306Z,3.17
2019-05-06T01:03:30.264Z,2.10
2019-05-06T01:06:03.723Z,3.00
2019-05-06T01:08:34.832Z,3.20
2019-05-06T01:11:07.838Z,2.53
2019-05-06T01:13:44.826Z,5.90
2019-05-06T01:16:17.658Z,2.70
2019-05-06T01:18:48.702Z,2.67
2019-05-06T01:21:19.618Z,2.70
2019-05-06T01:23:50.463Z,2.90
2019-05-06T01:26:21.643Z,3.00
2019-05-06T01:28:54.563Z,2.90
2019-05-06T01:31:39.537Z,4.77
2019-05-06T01:33:58.826Z,3.20
2019-05-06T01:36:31.027Z,2.83
2019-05-06T01:39:08.746Z,2.70
2019-05-06T01:42:11.043Z,2.60
2019-05-06T01:44:44.210Z,2.53
2019-05-06T01:47:14.899Z,3.47
2019-05-06T01:49:46.072Z,3.10
2019-05-06T01:52:17.034Z,3.57
2019-05-06T01:54:48.050Z,3.43
2019-05-06T01:57:19.311Z,4.10
2019-05-06T01:59:50.673Z,3.30
2019-05-06T02:02:23.704Z,3.10
2019-05-06T02:04:54.307Z,3.40
2019-05-06T02:07:25.594Z,2.60
2019-05-06T02:09:56.743Z,3.70
2019-05-06T02:12:28.302Z,3.97
2019-05-06T02:14:59.507Z,2.40
2019-05-06T02:17:31.054Z,3.20
2019-05-06T02:20:04.046Z,2.63
2019-05-06T02:22:56.627Z,4.83
2019-05-06T02:25:35.991Z,3.33
2019-05-06T02:28:06.998Z,3.97
2019-05-06T02:30:55.488Z,6.33
2019-05-06T02:33:40.916Z,2.93
2019-05-06T02:36:26.283Z,3.03
2019-05-06T02:38:57.102Z,3.77
2019-05-06T02:41:28.020Z,3.17
2019-05-06T02:43:58.980Z,4.03
2019-05-06T02:46:33.502Z,3.40
2019-05-06T02:49:24.631Z,3.33
2019-05-06T02:51:55.787Z,3.60
2019-05-06T02:54:26.762Z,3.50
2019-05-06T02:56:57.838Z,3.03
2019-05-06T02:59:28.954Z,3.00
2019-05-06T03:02:03.057Z,6.17
2019-05-06T03:04:33.294Z,3.30
2019-05-06T03:07:04.576Z,4.17
2019-05-06T03:09:35.788Z,3.23
2019-05-06T03:12:07.020Z,3.77
2019-05-06T03:14:38.528Z,3.10
2019-05-06T03:17:10.053Z,3.63
2019-05-06T03:19:45.693Z,3.33
2019-05-06T03:22:36.299Z,3.63
2019-05-06T03:25:19.391Z,4.23
2019-05-06T03:27:53.090Z,3.73
2019-05-06T03:30:25.612Z,4.57
2019-05-06T03:33:31.024Z,6.83
2019-05-06T03:35:44.287Z,4.07
2019-05-06T03:38:03.887Z,4.47
2019-05-06T03:40:36.651Z,4.33
2019-05-06T03:43:06.730Z,4.17
2019-05-06T03:45:59.430Z,3.87
2019-05-06T03:48:33.675Z,4.20
2019-05-06T03:51:05.691Z,5.47
2019-05-06T03:53:37.299Z,4.00
2019-05-06T03:56:08.471Z,4.87
2019-05-06T03:58:43.232Z,4.70
2019-05-06T04:01:13.380Z,3.20
2019-05-06T04:03:51.497Z,3.97
2019-05-06T04:06:17.254Z,4.03
2019-05-06T04:08:52.636Z,4.00
2019-05-06T04:11:24.447Z,4.10
2019-05-06T04:13:56.207Z,3.80
2019-05-06T04:16:55.119Z,5.47
2019-05-06T04:19:34.116Z,3.80
2019-05-06T04:22:26.750Z,3.80
2019-05-06T04:25:16.774Z,3.87
2019-05-06T04:27:53.992Z,4.20
2019-05-06T04:30:25.943Z,3.43
2019-05-06T04:32:56.846Z,3.90
2019-05-06T04:35:28.098Z,4.77
2019-05-06T04:37:59.394Z,3.50
2019-05-06T04:40:33.058Z,3.43
2019-05-06T04:43:04.187Z,3.87
2019-05-06T04:45:35.887Z,4.40
2019-05-06T04:48:07.238Z,3.97
2019-05-06T04:50:38.401Z,4.37
2019-05-06T04:53:09.763Z,4.17
2019-05-06T04:55:43.353Z,4.00
2019-05-06T04:58:13.787Z,5.90
2019-05-06T05:00:45.175Z,3.50
2019-05-06T05:03:16.363Z,5.50
2019-05-06T05:05:48.011Z,3.83
2019-05-06T05:08:19.206Z,4.20
2019-05-06T05:11:04.618Z,4.17
2019-05-06T05:13:53.418Z,5.33
2019-05-06T05:16:46.674Z,4.23
2019-05-06T05:19:17.606Z,4.70
2019-05-06T05:21:48.846Z,4.67
2019-05-06T05:24:20.250Z,5.17
2019-05-06T05:26:52.297Z,4.77
2019-05-06T05:29:23.538Z,6.33
2019-05-06T05:31:54.450Z,3.93
2019-05-06T05:34:37.085Z,4.23
2019-05-06T05:36:58.383Z,4.07
2019-05-06T05:39:29.291Z,3.97
2019-05-06T05:42:06.298Z,5.37
2019-05-06T05:44:39.139Z,3.50
2019-05-06T05:47:12.237Z,5.83
2019-05-06T05:50:03.002Z,4.80
2019-05-06T05:52:35.472Z,3.97
2019-05-06T05:55:08.022Z,4.30
2019-05-06T05:57:40.042Z,3.53
2019-05-06T06:00:12.963Z,4.43
2019-05-06T06:02:44.328Z,3.97
2019-05-06T06:05:16.394Z,3.70
2019-05-06T06:07:47.725Z,4.33
2019-05-06T06:10:26.047Z,3.90
2019-05-06T06:12:57.278Z,3.60
2019-05-06T06:15:46.170Z,4.70
2019-05-06T06:18:27.143Z,3.73
2019-05-06T06:21:17.583Z,3.80
2019-05-06T06:23:42.365Z,4.00
2019-05-06T06:26:13.438Z,4.47
2019-05-06T06:28:44.511Z,3.60
2019-05-06T06:31:29.603Z,4.17
2019-05-06T06:34:12.860Z,3.40
2019-05-06T06:36:50.207Z,3.90
2019-05-06T06:39:27.667Z,3.80
2019-05-06T06:41:59.338Z,3.80
2019-05-06T06:44:33.121Z,5.80
2019-05-06T06:47:05.302Z,4.63
2019-05-06T06:49:36.719Z,4.90
2019-05-06T06:52:11.562Z,3.60
2019-05-06T06:54:43.608Z,3.97
2019-05-06T06:57:44.378Z,4.10
2019-05-06T07:00:27.679Z,6.20
2019-05-06T07:03:03.526Z,4.67
2019-05-06T07:05:45.312Z,5.80
2019-05-06T07:08:16.318Z,3.63
2019-05-06T07:10:48.634Z,3.60
2019-05-06T07:13:20.126Z,3.30
2019-05-06T07:15:51.998Z,3.57
2019-05-06T07:18:23.583Z,5.03
2019-05-06T07:21:07.133Z,3.83
2019-05-06T07:23:38.451Z,3.90
2019-05-06T07:26:12.120Z,6.17
2019-05-06T07:28:43.729Z,3.60
2019-05-06T07:31:22.278Z,2.83
2019-05-06T07:33:52.075Z,3.47
2019-05-06T07:36:23.186Z,2.93
2019-05-06T07:38:55.705Z,4.13
2019-05-06T07:41:45.471Z,3.50
2019-05-06T07:44:33.349Z,4.50
2019-05-06T07:47:23.920Z,3.50
2019-05-06T07:49:55.587Z,4.67
2019-05-06T07:52:27.043Z,2.70
2019-05-06T07:54:59.091Z,5.07
2019-05-06T07:57:30.202Z,4.23
2019-05-06T08:00:03.418Z,4.77
2019-05-06T08:02:35.278Z,3.20
2019-05-06T08:05:07.686Z,3.73
2019-05-06T08:07:39.131Z,3.63
2019-05-06T08:10:10.234Z,4.47
2019-05-06T08:12:42.862Z,3.13
2019-05-06T08:15:16.638Z,3.13
2019-05-06T08:17:47.734Z,3.53
2019-05-06T08:20:19.455Z,4.03
2019-05-06T08:23:07.834Z,8.87
2019-05-06T08:26:09.074Z,3.80
2019-05-06T08:28:38.567Z,3.17
2019-05-06T08:31:02.350Z,2.90
2019-05-06T08:33:34.506Z,4.57
2019-05-06T08:36:12.579Z,4.13
2019-05-06T08:38:58.639Z,2.40
2019-05-06T08:41:29.736Z,2.47
2019-05-06T08:44:02.693Z,2.80
2019-05-06T08:46:34.183Z,4.27
2019-05-06T08:49:05.960Z,4.13
2019-05-06T08:51:58.579Z,2.90
2019-05-06T08:54:40.474Z,2.97
2019-05-06T08:57:12.002Z,3.60
2019-05-06T08:59:43.274Z,3.13
2019-05-06T09:02:14.592Z,3.73
2019-05-06T09:04:45.583Z,2.67
2019-05-06T09:07:16.529Z,3.83
2019-05-06T09:09:47.534Z,3.13
2019-05-06T09:12:19.730Z,2.40
2019-05-06T09:14:53.088Z,3.23
2019-05-06T09:17:23.570Z,3.10
2019-05-06T09:19:55.066Z,2.57
2019-05-06T09:22:26.272Z,3.87
2019-05-06T09:24:57.674Z,4.33
2019-05-06T09:27:46.250Z,3.90
2019-05-06T09:30:24.589Z,5.67
2019-05-06T09:32:55.962Z,2.87
2019-05-06T09:35:26.964Z,5.23
2019-05-06T09:37:58.144Z,2.80
2019-05-06T09:40:29.019Z,3.53
2019-05-06T09:43:04.489Z,1.97
2019-05-06T09:45:33.659Z,1.80
2019-05-06T09:48:36.038Z,3.50
2019-05-06T09:51:07.235Z,2.87
2019-05-06T09:54:00.387Z,1.93
2019-05-06T09:56:37.323Z,1.77
2019-05-06T09:59:08.374Z,1.97
2019-05-06T10:01:39.604Z,2.27
2019-05-06T10:04:12.947Z,3.40
2019-05-06T10:06:55.712Z,4.03
2019-05-06T10:09:16.575Z,1.50
2019-05-06T10:11:47.882Z,5.73
2019-05-06T10:14:19.335Z,2.97
2019-05-06T10:16:52.358Z,4.27
2019-05-06T10:19:23.560Z,1.93
2019-05-06T10:21:55.018Z,2.60
2019-05-06T10:24:26.434Z,2.43
2019-05-06T10:26:59.093Z,2.37
2019-05-06T10:29:43.168Z,2.83
2019-05-06T10:32:29.114Z,3.10
2019-05-06T10:34:59.982Z,1.63
2019-05-06T10:37:56.690Z,1.83
2019-05-06T10:40:32.929Z,2.40
2019-05-06T10:43:18.483Z,2.50
2019-05-06T10:45:49.490Z,2.33
2019-05-06T10:48:22.460Z,2.67
2019-05-06T10:50:57.026Z,5.10
2019-05-06T10:53:28.462Z,2.60
2019-05-06T10:56:02.982Z,3.60
2019-05-06T10:58:34.210Z,3.10
2019-05-06T11:01:15.307Z,3.43
2019-05-06T11:03:47.047Z,3.03
2019-05-06T11:06:21.739Z,5.23
2019-05-06T11:08:52.590Z,1.97
2019-05-06T11:11:32.528Z,3.17
2019-05-06T11:13:57.042Z,2.13
2019-05-06T11:16:28.122Z,3.80
2019-05-06T11:19:02.106Z,2.30
2019-05-06T11:21:33.001Z,4.50
2019-05-06T11:24:06.232Z,5.40
2019-05-06T11:26:37.207Z,4.10
2019-05-06T11:29:13.212Z,2.70
2019-05-06T11:32:02.866Z,3.67
2019-05-06T11:34:45.130Z,2.87
2019-05-06T11:37:19.695Z,4.40
2019-05-06T11:39:52.867Z,2.93
2019-05-06T11:42:32.120Z,3.50
2019-05-06T11:44:59.570Z,3.40
2019-05-06T11:47:33.114Z,4.00
2019-05-06T11:50:05.059Z,4.10
2019-05-06T11:52:36.472Z,3.47
2019-05-06T11:55:08.110Z,3.23
2019-05-06T11:57:41.639Z,3.63
2019-05-06T12:00:17.687Z,4.70
2019-05-06T12:02:49.074Z,3.57
2019-05-06T12:05:22.233Z,6.03
2019-05-06T12:08:01.963Z,3.77
2019-05-06T12:10:25.133Z,5.17
2019-05-06T12:12:56.134Z,3.63
2019-05-06T12:15:27.274Z,3.40
2019-05-06T12:17:58.215Z,5.07
2019-05-06T12:20:29.548Z,3.20
2019-05-06T12:23:04.281Z,3.33
2019-05-06T12:25:33.308Z,4.67
2019-05-06T12:28:04.112Z,7.37
2019-05-06T12:30:35.859Z,4.37
2019-05-06T12:33:35.149Z,3.90
2019-05-06T12:36:25.541Z,3.93
2019-05-06T12:39:17.001Z,2.97
2019-05-06T12:42:15.256Z,4.17
2019-05-06T12:45:14.539Z,5.17
2019-05-06T12:47:53.382Z,5.83
2019-05-06T12:50:24.978Z,5.17
2019-05-06T12:52:58.042Z,5.53
2019-05-06T12:55:29.819Z,2.67
2019-05-06T12:58:02.941Z,4.17
2019-05-06T13:00:35.763Z,6.67
2019-05-06T13:03:06.967Z,4.73
2019-05-06T13:05:37.870Z,3.37
2019-05-06T13:08:09.631Z,3.53
2019-05-06T13:10:42.095Z,3.77
2019-05-06T13:13:13.359Z,3.40
2019-05-06T13:15:44.675Z,3.33
2019-05-06T13:18:15.843Z,6.13
2019-05-06T13:20:50.631Z,4.37
2019-05-06T13:23:47.807Z,3.50
2019-05-06T13:26:18.870Z,2.93
2019-05-06T13:28:54.310Z,3.20
2019-05-06T13:31:25.884Z,4.77
2019-05-06T13:34:12.706Z,10.37
2019-05-06T13:36:44.586Z,4.17
2019-05-06T13:39:17.447Z,2.90
2019-05-06T13:41:48.862Z,4.20
2019-05-06T13:44:22.860Z,3.60
2019-05-06T13:46:55.303Z,4.80
2019-05-06T13:49:58.455Z,4.37
2019-05-06T13:52:36.683Z,2.70
2019-05-06T13:55:08.492Z,4.17
2019-05-06T13:57:39.759Z,3.80
2019-05-06T14:00:13.525Z,4.23
2019-05-06T14:02:53.300Z,3.60
2019-05-06T14:05:25.543Z,5.90
2019-05-06T14:07:57.351Z,5.90
2019-05-06T14:10:29.322Z,4.50
2019-05-06T14:13:02.400Z,7.47
2019-05-06T14:15:33.918Z,7.27
2019-05-06T14:18:05.000Z,6.60
2019-05-06T14:20:36.650Z,8.70
2019-05-06T14:23:08.790Z,5.70
2019-05-06T14:25:57.851Z,6.77
2019-05-06T14:28:56.587Z,5.60
2019-05-06T14:31:32.507Z,7.57
2019-05-06T14:34:03.307Z,6.27
2019-05-06T14:36:34.539Z,6.00
2019-05-06T14:39:08.464Z,6.03
2019-05-06T14:41:44.561Z,6.80
2019-05-06T14:44:15.186Z,6.57
2019-05-06T14:47:04.034Z,5.70
2019-05-06T14:49:36.834Z,6.00
2019-05-06T14:52:08.059Z,5.83
2019-05-06T14:55:02.599Z,5.27
2019-05-06T14:57:34.227Z,5.87
2019-05-06T15:00:06.854Z,7.33
2019-05-06T15:02:38.311Z,5.30
2019-05-06T15:05:10.195Z,5.70
2019-05-06T15:07:42.152Z,4.67
2019-05-06T15:10:23.011Z,6.23
2019-05-06T15:12:46.731Z,6.50
2019-05-06T15:15:24.062Z,5.97
2019-05-06T15:17:55.256Z,5.77
2019-05-06T15:20:26.767Z,9.23
2019-05-06T15:22:58.042Z,7.47
2019-05-06T15:25:29.182Z,10.87
2019-05-06T15:28:02.485Z,6.60
2019-05-06T15:30:43.488Z,5.93
2019-05-06T15:33:16.759Z,8.97
2019-05-06T15:36:16.071Z,4.87
2019-05-06T15:38:48.071Z,7.10
2019-05-06T15:41:22.214Z,11.23
2019-05-06T15:43:53.587Z,10.43
2019-05-06T15:46:24.782Z,16.03
2019-05-06T15:48:56.255Z,7.77
2019-05-06T15:51:36.311Z,6.47
2019-05-06T15:54:07.763Z,6.30
2019-05-06T15:56:38.983Z,6.80
2019-05-06T15:59:11.973Z,5.60
2019-05-06T16:01:43.244Z,5.67
2019-05-06T16:04:15.858Z,10.70
2019-05-06T16:06:47.314Z,6.03
2019-05-06T16:09:18.411Z,7.47
2019-05-06T16:11:49.542Z,6.13
2019-05-06T16:14:22.997Z,12.37
2019-05-06T16:16:54.210Z,9.10
2019-05-06T16:19:33.609Z,8.37
2019-05-06T16:22:06.139Z,10.07
2019-05-06T16:24:43.166Z,9.37
2019-05-06T16:27:14.330Z,8.23
2019-05-06T16:29:45.152Z,7.57
2019-05-06T16:32:16.410Z,9.27
2019-05-06T16:34:47.551Z,10.00
2019-05-06T16:37:19.298Z,10.97
2019-05-06T16:39:54.150Z,6.17
2019-05-06T16:42:23.541Z,7.07
2019-05-06T16:44:54.604Z,7.63
2019-05-06T16:47:52.368Z,9.07
2019-05-06T16:50:23.690Z,7.00
2019-05-06T16:52:54.665Z,8.10
2019-05-06T16:55:36.258Z,7.10
2019-05-06T16:58:11.335Z,8.00
2019-05-06T17:00:43.016Z,7.30
2019-05-06T17:03:23.074Z,7.80
2019-05-06T17:06:08.749Z,7.73
2019-05-06T17:08:42.330Z,8.60
2019-05-06T17:11:25.760Z,8.50
2019-05-06T17:13:45.851Z,7.70
2019-05-06T17:16:17.082Z,8.73
2019-05-06T17:18:48.157Z,7.77
2019-05-06T17:21:22.104Z,9.27
2019-05-06T17:23:53.162Z,6.30
2019-05-06T17:26:25.346Z,6.27
2019-05-06T17:29:27.962Z,7.50
2019-05-06T17:32:13.591Z,6.27
2019-05-06T17:34:52.737Z,8.43
2019-05-06T17:37:42.113Z,6.03
2019-05-06T17:40:15.291Z,5.77
2019-05-06T17:42:46.633Z,6.73
2019-05-06T17:45:35.682Z,6.03
2019-05-06T17:48:16.251Z,6.13
2019-05-06T17:51:06.758Z,6.90
2019-05-06T17:53:38.096Z,6.60
2019-05-06T17:56:09.487Z,6.50
2019-05-06T17:58:42.306Z,5.77
2019-05-06T18:01:17.059Z,7.03
2019-05-06T18:03:48.459Z,8.47
2019-05-06T18:06:22.961Z,10.70
2019-05-06T18:08:54.504Z,7.00
2019-05-06T18:11:25.647Z,6.63
2019-05-06T18:13:56.874Z,8.43
2019-05-06T18:16:29.058Z,7.10
2019-05-06T18:19:00.163Z,6.37
2019-05-06T18:21:33.226Z,5.60
2019-05-06T18:24:04.374Z,8.73
2019-05-06T18:26:35.710Z,6.30
2019-05-06T18:29:07.046Z,6.10
2019-05-06T18:31:38.175Z,7.17
2019-05-06T18:34:09.300Z,10.50
2019-05-06T18:36:42.709Z,7.70
2019-05-06T18:39:14.918Z,10.07
2019-05-06T18:41:46.141Z,6.57
2019-05-06T18:44:17.108Z,8.17
2019-05-06T18:46:48.094Z,8.47
2019-05-06T18:49:24.366Z,6.73
2019-05-06T18:51:57.255Z,9.73
2019-05-06T18:54:28.175Z,8.27
2019-05-06T18:57:01.975Z,9.93
2019-05-06T18:59:33.005Z,7.57
2019-05-06T19:02:05.050Z,12.23
2019-05-06T19:04:46.262Z,10.63
2019-05-06T19:07:17.463Z,11.33
2019-05-06T19:10:03.223Z,9.77
2019-05-06T19:12:40.566Z,10.50
2019-05-06T19:15:09.118Z,9.73
2019-05-06T19:17:44.057Z,10.20
2019-05-06T19:20:13.891Z,9.47
2019-05-06T19:22:45.106Z,10.23
2019-05-06T19:25:17.006Z,9.40
2019-05-06T19:27:48.058Z,10.73
2019-05-06T19:30:19.822Z,9.63
2019-05-06T19:32:52.596Z,8.73
2019-05-06T19:35:23.571Z,9.73
2019-05-06T19:37:54.819Z,9.70
2019-05-06T19:40:26.271Z,11.97
2019-05-06T19:42:57.783Z,10.40
2019-05-06T19:45:29.502Z,10.30
2019-05-06T19:48:02.934Z,14.07
2019-05-06T19:50:36.527Z,11.00
2019-05-06T19:53:06.871Z,12.50
2019-05-06T19:55:38.978Z,10.60
2019-05-06T19:58:10.395Z,13.87
2019-05-06T20:00:42.074Z,11.03
2019-05-06T20:03:13.583Z,10.63
2019-05-06T20:06:02.969Z,9.63
2019-05-06T20:08:55.643Z,10.23
2019-05-06T20:11:33.101Z,9.80
2019-05-06T20:14:04.271Z,9.67
2019-05-06T20:16:35.823Z,10.63
2019-05-06T20:19:06.982Z,10.43
2019-05-06T20:21:42.153Z,15.40
2019-05-06T20:24:12.836Z,10.10
2019-05-06T20:26:44.146Z,10.20
2019-05-06T20:29:16.014Z,10.67
2019-05-06T20:31:47.336Z,12.63
2019-05-06T20:34:18.786Z,10.63
2019-05-06T20:36:52.614Z,9.30
2019-05-06T20:39:24.766Z,11.37
2019-05-06T20:41:55.769Z,11.73
2019-05-06T20:44:27.566Z,11.13
2019-05-06T20:46:58.886Z,11.27
2019-05-06T20:49:30.303Z,10.73
2019-05-06T20:52:01.677Z,9.73
2019-05-06T20:54:32.782Z,8.90
2019-05-06T20:57:04.847Z,11.07
2019-05-06T20:59:36.211Z,8.77
2019-05-06T21:02:07.394Z,10.17
2019-05-06T21:04:38.124Z,8.80
2019-05-06T21:07:09.391Z,9.93
2019-05-06T21:09:40.306Z,10.30
2019-05-06T21:12:11.510Z,8.87
2019-05-06T21:14:43.378Z,8.70
2019-05-06T21:17:14.691Z,9.67
2019-05-06T21:19:45.842Z,10.07
2019-05-06T21:22:16.967Z,9.30
2019-05-06T21:24:47.978Z,11.10
2019-05-06T21:27:19.086Z,11.50
2019-05-06T21:29:52.317Z,9.13
2019-05-06T21:32:23.354Z,11.77
2019-05-06T21:34:54.450Z,15.07
2019-05-06T21:37:25.678Z,12.40
2019-05-06T21:39:57.154Z,9.57
2019-05-06T21:42:28.120Z,9.67
2019-05-06T21:45:00.011Z,11.00
2019-05-06T21:47:32.537Z,10.67
2019-05-06T21:50:04.094Z,10.73
2019-05-06T21:52:39.603Z,9.23
2019-05-06T21:55:08.106Z,10.27
2019-05-06T21:57:42.284Z,9.73
2019-05-06T22:00:17.091Z,10.67
2019-05-06T22:02:49.202Z,10.80
2019-05-06T22:05:22.590Z,11.20
2019-05-06T22:07:53.510Z,10.27
2019-05-06T22:10:25.114Z,10.70
2019-05-06T22:12:56.607Z,13.03
2019-05-06T22:15:28.742Z,11.43
2019-05-06T22:17:59.631Z,11.00
2019-05-06T22:20:32.821Z,10.00
2019-05-06T22:23:04.984Z,9.50
2019-05-06T22:25:36.426Z,14.03
2019-05-06T22:28:07.522Z,10.33
2019-05-06T22:30:38.778Z,12.57
2019-05-06T22:33:10.206Z,15.97
2019-05-06T22:35:43.042Z,11.60
2019-05-06T22:38:14.383Z,9.80
2019-05-06T22:40:45.446Z,12.20
2019-05-06T22:43:16.434Z,14.27
2019-05-06T22:45:47.459Z,7.43
2019-05-06T22:48:18.418Z,12.43
2019-05-06T22:50:49.708Z,8.60
2019-05-06T22:53:22.119Z,10.50
2019-05-06T22:55:54.698Z,8.07
2019-05-06T22:58:25.666Z,11.33
2019-05-06T23:00:57.414Z,13.53
2019-05-06T23:03:32.069Z,9.43
2019-05-06T23:06:02.613Z,12.63
2019-05-06T23:08:33.659Z,7.57
2019-05-06T23:11:04.382Z,11.43
2019-05-06T23:13:35.689Z,13.23
2019-05-06T23:16:07.026Z,9.27
2019-05-06T23:18:38.166Z,8.23
2019-05-06T23:21:09.330Z,11.10
2019-05-06T23:23:40.250Z,10.77
2019-05-06T23:26:18.331Z,7.87
2019-05-06T23:28:49.758Z,7.43
2019-05-06T23:31:21.984Z,9.73
2019-05-06T23:33:54.043Z,11.43
2019-05-06T23:36:25.183Z,8.30
2019-05-06T23:39:35.755Z,10.53
2019-05-06T23:42:42.498Z,11.87
2019-05-06T23:45:49.374Z,9.20
2019-05-06T23:48:55.938Z,10.70
2019-05-06T23:52:02.650Z,8.77
2019-05-06T23:55:08.994Z,11.40
2019-05-06T23:57:38.045Z,8.20
